createdAt,value
2023-05-01T00:02:23.988Z,72.09
2023-05-01T00:04:50.678Z,72.33
2023-05-01T00:07:17.443Z,72.40
2023-05-01T00:09:43.919Z,72.58
2023-05-01T00:12:11.586Z,72.84
2023-05-01T00:14:38.071Z,72.42
2023-05-01T00:17:04.697Z,72.73
2023-05-01T00:19:31.259Z,72.73
2023-05-01T00:21:57.712Z,73.27
2023-05-01T00:24:24.188Z,73.10
2023-05-01T00:26:50.645Z,73.50
2023-05-01T00:29:17.209Z,73.52
2023-05-01T00:31:44.143Z,73.57
2023-05-01T00:34:13.726Z,73.60
2023-05-01T00:36:40.175Z,73.97
2023-05-01T00:39:07.819Z,73.64
2023-05-01T00:41:35.374Z,73.66
2023-05-01T00:44:01.919Z,73.84
2023-05-01T00:46:30.275Z,74.07
2023-05-01T00:48:58.301Z,74.03
2023-05-01T00:51:27.277Z,74.06
2023-05-01T00:53:54.089Z,73.83
2023-05-01T00:56:21.413Z,74.34
2023-05-01T00:58:53.395Z,74.48
2023-05-01T01:01:23.629Z,74.42
2023-05-01T01:03:54.403Z,74.46
2023-05-01T01:07:03.931Z,74.07
2023-05-01T01:09:53.345Z,74.90
2023-05-01T01:12:31.060Z,74.88
2023-05-01T01:15:14.520Z,74.85
2023-05-01T01:17:53.151Z,74.76
2023-05-01T01:20:28.476Z,74.82
2023-05-01T01:23:19.997Z,74.78
2023-05-01T01:26:10.661Z,75.04
2023-05-01T01:29:01.566Z,75.00
2023-05-01T01:31:48.012Z,75.39
2023-05-01T01:34:31.275Z,75.23
2023-05-01T01:37:12.617Z,75.01
2023-05-01T01:40:01.267Z,75.17
2023-05-01T01:42:39.012Z,75.91
2023-05-01T01:45:11.978Z,76.00
2023-05-01T01:47:42.297Z,76.50
2023-05-01T01:50:10.273Z,75.46
2023-05-01T01:52:40.632Z,76.65
2023-05-01T01:55:11.036Z,76.55
2023-05-01T01:57:39.904Z,76.41
2023-05-01T02:00:11.085Z,76.50
2023-05-01T02:02:43.874Z,76.58
2023-05-01T02:05:14.648Z,76.86
2023-05-01T02:07:43.324Z,76.40
2023-05-01T02:10:12.662Z,77.15
2023-05-01T02:12:40.229Z,76.41
2023-05-01T02:15:08.840Z,76.59
2023-05-01T02:17:38.292Z,77.27
2023-05-01T02:20:07.864Z,77.03
2023-05-01T02:22:34.536Z,76.52
2023-05-01T02:25:03.386Z,77.26
2023-05-01T02:27:34.771Z,77.42
2023-05-01T02:30:01.560Z,77.50
2023-05-01T02:32:28.461Z,77.28
2023-05-01T02:34:59.917Z,77.47
2023-05-01T02:37:26.431Z,77.17
2023-05-01T02:39:54.064Z,77.83
2023-05-01T02:42:23.505Z,78.06
2023-05-01T02:45:10.962Z,77.68
2023-05-01T02:47:40.188Z,77.74
2023-05-01T02:50:07.900Z,77.79
2023-05-01T02:52:34.881Z,77.94
2023-05-01T02:55:21.482Z,77.62
2023-05-01T02:57:51.040Z,77.93
2023-05-01T03:00:18.537Z,78.19
2023-05-01T03:02:46.052Z,77.82
2023-05-01T03:05:12.766Z,77.73
2023-05-01T03:07:39.213Z,78.25
2023-05-01T03:10:07.776Z,77.86
2023-05-01T03:12:34.496Z,78.37
2023-05-01T03:15:00.951Z,77.87
2023-05-01T03:17:27.434Z,78.20
2023-05-01T03:19:54.082Z,77.85
2023-05-01T03:22:20.835Z,78.36
2023-05-01T03:24:47.671Z,79.09
2023-05-01T03:27:14.315Z,79.18
2023-05-01T03:29:40.830Z,79.03
2023-05-01T03:32:07.443Z,78.92
2023-05-01T03:34:34.672Z,78.88
2023-05-01T03:37:01.260Z,79.35
2023-05-01T03:39:27.755Z,79.35
2023-05-01T03:42:14.468Z,78.82
2023-05-01T03:44:42.668Z,78.85
2023-05-01T03:47:10.246Z,78.81
2023-05-01T03:49:43.540Z,78.50
2023-05-01T03:52:12.138Z,78.59
2023-05-01T03:54:39.362Z,78.45
2023-05-01T03:57:17.373Z,78.62
2023-05-01T03:59:43.967Z,78.40
2023-05-01T04:02:12.786Z,78.68
2023-05-01T04:04:39.758Z,79.03
2023-05-01T04:07:06.302Z,79.25
2023-05-01T04:09:32.931Z,79.48
2023-05-01T04:12:02.700Z,79.34
2023-05-01T04:14:29.495Z,79.34
2023-05-01T04:16:57.503Z,79.39
2023-05-01T04:19:24.158Z,79.14
2023-05-01T04:21:55.346Z,79.82
2023-05-01T04:24:22.016Z,78.81
2023-05-01T04:26:49.581Z,77.41
2023-05-01T04:29:16.071Z,75.99
2023-05-01T04:31:43.209Z,76.23
2023-05-01T04:34:09.891Z,75.95
2023-05-01T04:36:37.754Z,75.94
2023-05-01T04:39:04.531Z,76.07
2023-05-01T04:41:31.249Z,77.17
2023-05-01T04:43:57.902Z,76.42
2023-05-01T04:46:24.862Z,76.26
2023-05-01T04:48:51.487Z,75.93
2023-05-01T04:51:18.088Z,76.03
2023-05-01T04:53:44.534Z,76.94
2023-05-01T04:56:22.853Z,77.51
2023-05-01T04:58:53.524Z,78.14
2023-05-01T05:01:22.433Z,78.21
2023-05-01T05:03:51.860Z,78.20
2023-05-01T05:06:19.104Z,77.62
2023-05-01T05:08:45.591Z,78.68
2023-05-01T05:11:15.106Z,78.16
2023-05-01T05:13:44.548Z,77.50
2023-05-01T05:16:13.057Z,77.81
2023-05-01T05:18:39.662Z,77.85
2023-05-01T05:21:07.217Z,77.25
2023-05-01T05:23:33.868Z,77.29
2023-05-01T05:26:03.853Z,76.77
2023-05-01T05:28:31.395Z,76.24
2023-05-01T05:30:57.918Z,75.26
2023-05-01T05:33:25.426Z,75.17
2023-05-01T05:35:52.403Z,75.62
2023-05-01T05:38:21.891Z,74.85
2023-05-01T05:40:54.101Z,75.55
2023-05-01T05:43:21.304Z,75.05
2023-05-01T05:45:48.886Z,74.87
2023-05-01T05:48:17.276Z,74.79
2023-05-01T05:50:43.980Z,73.67
2023-05-01T05:53:11.746Z,73.89
2023-05-01T05:55:38.851Z,73.15
2023-05-01T05:58:06.789Z,72.90
2023-05-01T06:00:33.680Z,72.33
2023-05-01T06:03:04.351Z,72.53
2023-05-01T06:05:32.356Z,72.99
2023-05-01T06:07:58.900Z,72.05
2023-05-01T06:10:25.553Z,72.36
2023-05-01T06:13:03.483Z,73.01
2023-05-01T06:15:38.749Z,72.49
2023-05-01T06:18:14.162Z,73.90
2023-05-01T06:20:41.066Z,72.29
2023-05-01T06:23:09.461Z,72.15
2023-05-01T06:25:49.614Z,71.37
2023-05-01T06:28:16.099Z,71.23
2023-05-01T06:30:42.835Z,71.00
2023-05-01T06:33:10.548Z,71.31
2023-05-01T06:35:49.639Z,70.62
2023-05-01T06:38:16.864Z,71.38
2023-05-01T06:40:46.993Z,70.24
2023-05-01T06:43:13.627Z,69.96
2023-05-01T06:45:41.346Z,70.05
2023-05-01T06:48:07.929Z,69.80
2023-05-01T06:50:35.542Z,70.48
2023-05-01T06:53:02.780Z,69.20
2023-05-01T06:55:33.261Z,69.37
2023-05-01T06:58:02.741Z,69.24
2023-05-01T07:00:34.216Z,68.47
2023-05-01T07:03:00.725Z,68.91
2023-05-01T07:05:27.248Z,68.93
2023-05-01T07:08:01.297Z,69.06
2023-05-01T07:10:29.194Z,69.09
2023-05-01T07:12:55.629Z,68.94
2023-05-01T07:15:22.326Z,69.66
2023-05-01T07:17:50.450Z,69.32
2023-05-01T07:20:18.295Z,69.88
2023-05-01T07:22:51.687Z,69.96
2023-05-01T07:25:18.354Z,69.30
2023-05-01T07:27:44.776Z,69.80
2023-05-01T07:30:11.585Z,69.73
2023-05-01T07:32:38.135Z,68.95
2023-05-01T07:35:05.082Z,69.92
2023-05-01T07:37:31.516Z,67.89
2023-05-01T07:40:00.717Z,68.16
2023-05-01T07:42:27.602Z,68.47
2023-05-01T07:44:54.020Z,68.03
2023-05-01T07:47:20.715Z,68.95
2023-05-01T07:49:47.167Z,68.38
2023-05-01T07:52:15.425Z,69.19
2023-05-01T07:54:42.172Z,68.62
2023-05-01T07:57:08.724Z,67.55
2023-05-01T07:59:35.249Z,67.03
2023-05-01T08:02:01.944Z,66.99
2023-05-01T08:04:29.316Z,66.56
2023-05-01T08:06:55.882Z,67.07
2023-05-01T08:09:22.479Z,66.66
2023-05-01T08:11:48.991Z,66.93
2023-05-01T08:14:17.667Z,66.18
2023-05-01T08:16:44.439Z,67.08
2023-05-01T08:19:13.465Z,66.59
2023-05-01T08:21:39.911Z,67.13
2023-05-01T08:24:09.302Z,66.45
2023-05-01T08:26:35.853Z,67.31
2023-05-01T08:29:02.336Z,67.80
2023-05-01T08:31:28.811Z,67.48
2023-05-01T08:33:55.394Z,68.29
2023-05-01T08:36:21.967Z,68.54
2023-05-01T08:38:48.603Z,68.57
2023-05-01T08:41:22.466Z,68.05
2023-05-01T08:43:49.557Z,69.05
2023-05-01T08:46:33.833Z,68.39
2023-05-01T08:49:02.767Z,69.00
2023-05-01T08:51:31.808Z,69.34
2023-05-01T08:53:59.638Z,68.08
2023-05-01T08:56:26.518Z,68.59
2023-05-01T08:58:54.936Z,70.28
2023-05-01T09:01:23.106Z,66.98
2023-05-01T09:03:51.108Z,67.94
2023-05-01T09:06:18.171Z,69.06
2023-05-01T09:08:44.828Z,67.46
2023-05-01T09:11:14.482Z,67.37
2023-05-01T09:13:40.950Z,67.33
2023-05-01T09:16:08.474Z,66.53
2023-05-01T09:18:35.625Z,67.76
2023-05-01T09:21:03.454Z,66.04
2023-05-01T09:23:29.893Z,64.93
2023-05-01T09:25:57.542Z,64.77
2023-05-01T09:28:46.072Z,64.26
2023-05-01T09:31:30.319Z,64.98
2023-05-01T09:34:04.249Z,64.69
2023-05-01T09:36:32.384Z,63.27
2023-05-01T09:39:02.425Z,62.34
2023-05-01T09:41:31.403Z,61.12
2023-05-01T09:44:01.585Z,61.27
2023-05-01T09:46:28.258Z,60.41
2023-05-01T09:48:59.936Z,60.32
2023-05-01T09:51:31.395Z,60.12
2023-05-01T09:53:59.846Z,60.12
2023-05-01T09:56:28.303Z,59.08
2023-05-01T09:58:56.351Z,57.86
2023-05-01T10:01:52.795Z,58.28
2023-05-01T10:04:30.038Z,56.42
2023-05-01T10:06:56.733Z,54.50
2023-05-01T10:09:29.867Z,55.36
2023-05-01T10:11:57.698Z,53.74
2023-05-01T10:14:25.646Z,55.21
2023-05-01T10:16:56.764Z,52.53
2023-05-01T10:19:23.428Z,53.82
2023-05-01T10:21:53.423Z,54.49
2023-05-01T10:24:21.599Z,52.26
2023-05-01T10:26:52.057Z,52.51
2023-05-01T10:29:23.287Z,52.99
2023-05-01T10:31:49.793Z,52.86
2023-05-01T10:34:20.054Z,52.27
2023-05-01T10:36:54.971Z,51.63
2023-05-01T10:39:32.318Z,53.11
2023-05-01T10:41:58.790Z,52.65
2023-05-01T10:44:27.174Z,50.94
2023-05-01T10:46:54.590Z,51.96
2023-05-01T10:49:21.534Z,51.83
2023-05-01T10:52:00.963Z,52.44
2023-05-01T10:54:29.322Z,53.42
2023-05-01T10:56:58.597Z,52.88
2023-05-01T10:59:26.108Z,51.86
2023-05-01T11:01:53.431Z,49.46
2023-05-01T11:04:19.966Z,49.32
2023-05-01T11:07:15.030Z,50.99
2023-05-01T11:10:01.778Z,51.03
2023-05-01T11:12:46.670Z,50.43
2023-05-01T11:15:28.970Z,49.79
2023-05-01T11:18:00.453Z,51.28
2023-05-01T11:20:26.804Z,49.23
2023-05-01T11:22:54.910Z,49.63
2023-05-01T11:25:27.561Z,49.24
2023-05-01T11:27:56.711Z,50.10
2023-05-01T11:30:23.449Z,51.38
2023-05-01T11:32:51.681Z,51.16
2023-05-01T11:35:22.243Z,51.74
2023-05-01T11:37:51.211Z,50.99
2023-05-01T11:40:24.529Z,50.44
2023-05-01T11:42:59.660Z,49.83
2023-05-01T11:45:26.356Z,49.04
2023-05-01T11:47:53.690Z,49.16
2023-05-01T11:50:21.908Z,48.72
2023-05-01T11:52:54.717Z,48.06
2023-05-01T11:55:21.794Z,47.93
2023-05-01T11:57:53.101Z,47.69
2023-05-01T12:00:28.060Z,47.10
2023-05-01T12:02:58.800Z,46.18
2023-05-01T12:05:26.823Z,45.96
2023-05-01T12:08:25.829Z,47.44
2023-05-01T12:10:56.092Z,45.67
2023-05-01T12:13:24.221Z,45.18
2023-05-01T12:15:52.704Z,47.19
2023-05-01T12:18:21.380Z,47.02
2023-05-01T12:20:51.863Z,47.83
2023-05-01T12:23:19.751Z,47.90
2023-05-01T12:25:46.853Z,48.32
2023-05-01T12:28:15.755Z,49.15
2023-05-01T12:30:44.833Z,50.66
2023-05-01T12:33:16.614Z,51.33
2023-05-01T12:35:47.811Z,52.12
2023-05-01T12:38:15.683Z,52.59
2023-05-01T12:40:59.482Z,52.77
2023-05-01T12:43:37.104Z,52.69
2023-05-01T12:46:05.792Z,53.44
2023-05-01T12:48:35.431Z,54.56
2023-05-01T12:51:01.978Z,54.66
2023-05-01T12:53:29.668Z,52.94
2023-05-01T12:56:00.498Z,53.55
2023-05-01T12:58:37.017Z,55.14
2023-05-01T13:01:03.823Z,55.57
2023-05-01T13:03:31.356Z,56.92
2023-05-01T13:05:59.982Z,55.12
2023-05-01T13:08:29.013Z,54.85
2023-05-01T13:10:57.376Z,57.76
2023-05-01T13:13:26.257Z,57.66
2023-05-01T13:15:53.224Z,57.34
2023-05-01T13:18:19.942Z,57.48
2023-05-01T13:20:46.561Z,58.68
2023-05-01T13:23:14.109Z,56.45
2023-05-01T13:25:40.828Z,57.59
2023-05-01T13:28:07.980Z,58.01
2023-05-01T13:30:34.708Z,59.66
2023-05-01T13:33:02.086Z,60.31
2023-05-01T13:35:28.662Z,61.38
2023-05-01T13:37:55.375Z,59.45
2023-05-01T13:40:24.261Z,58.70
2023-05-01T13:42:52.797Z,58.39
2023-05-01T13:45:21.146Z,57.85
2023-05-01T13:47:50.741Z,57.70
2023-05-01T13:50:18.090Z,58.04
2023-05-01T13:52:45.787Z,58.31
2023-05-01T13:55:14.382Z,57.48
2023-05-01T13:57:42.244Z,57.58
2023-05-01T14:00:14.243Z,56.36
2023-05-01T14:02:50.498Z,56.39
2023-05-01T14:05:23.408Z,55.33
2023-05-01T14:07:55.086Z,55.82
2023-05-01T14:10:25.565Z,55.73
2023-05-01T14:12:55.416Z,55.03
2023-05-01T14:15:24.193Z,54.80
2023-05-01T14:17:50.986Z,54.45
2023-05-01T14:20:17.830Z,54.49
2023-05-01T14:22:47.430Z,54.17
2023-05-01T14:25:17.282Z,54.04
2023-05-01T14:27:43.679Z,53.96
2023-05-01T14:30:19.344Z,51.24
2023-05-01T14:32:45.922Z,51.60
2023-05-01T14:35:13.102Z,51.40
2023-05-01T14:37:39.786Z,49.44
2023-05-01T14:40:11.562Z,50.51
2023-05-01T14:42:42.150Z,49.01
2023-05-01T14:45:18.888Z,48.80
2023-05-01T14:47:50.936Z,49.84
2023-05-01T14:50:21.987Z,49.60
2023-05-01T14:52:59.593Z,49.25
2023-05-01T14:55:29.081Z,48.62
2023-05-01T14:57:56.543Z,48.80
2023-05-01T15:00:24.358Z,49.11
2023-05-01T15:02:51.121Z,50.61
2023-05-01T15:05:18.014Z,51.10
2023-05-01T15:07:44.879Z,51.99
2023-05-01T15:10:11.960Z,52.23
2023-05-01T15:12:38.482Z,51.88
2023-05-01T15:15:06.358Z,52.71
2023-05-01T15:17:32.805Z,53.19
2023-05-01T15:20:00.430Z,53.63
2023-05-01T15:22:26.937Z,52.39
2023-05-01T15:24:53.493Z,53.28
2023-05-01T15:27:20.080Z,53.99
2023-05-01T15:29:46.922Z,54.53
2023-05-01T15:32:16.405Z,54.09
2023-05-01T15:34:43.007Z,55.03
2023-05-01T15:37:09.488Z,54.35
2023-05-01T15:39:36.746Z,54.98
2023-05-01T15:42:03.831Z,54.67
2023-05-01T15:44:36.624Z,54.49
2023-05-01T15:47:03.138Z,53.67
2023-05-01T15:49:29.683Z,54.08
2023-05-01T15:51:56.466Z,54.36
2023-05-01T15:54:24.505Z,55.52
2023-05-01T15:56:51.639Z,54.66
2023-05-01T15:59:18.147Z,55.14
2023-05-01T16:01:44.755Z,54.88
2023-05-01T16:04:11.454Z,55.26
2023-05-01T16:06:38.171Z,55.56
2023-05-01T16:09:05.134Z,55.92
2023-05-01T16:11:32.540Z,55.63
2023-05-01T16:14:00.067Z,55.44
2023-05-01T16:16:27.644Z,56.05
2023-05-01T16:18:59.275Z,55.95
2023-05-01T16:21:27.772Z,56.59
2023-05-01T16:23:59.758Z,56.69
2023-05-01T16:26:30.004Z,56.83
2023-05-01T16:29:01.960Z,56.21
2023-05-01T16:31:37.262Z,56.66
2023-05-01T16:34:06.527Z,57.21
2023-05-01T16:36:37.465Z,56.76
2023-05-01T16:39:04.295Z,58.05
2023-05-01T16:41:30.864Z,58.60
2023-05-01T16:44:00.651Z,59.48
2023-05-01T16:46:30.670Z,60.22
2023-05-01T16:48:57.154Z,60.94
2023-05-01T16:51:23.637Z,60.90
2023-05-01T16:53:50.194Z,61.04
2023-05-01T16:56:16.814Z,61.53
2023-05-01T16:58:43.976Z,61.87
2023-05-01T17:01:15.975Z,61.74
2023-05-01T17:03:42.496Z,61.89
2023-05-01T17:06:09.129Z,62.30
2023-05-01T17:08:35.564Z,62.39
2023-05-01T17:11:04.684Z,62.34
2023-05-01T17:13:31.176Z,62.92
2023-05-01T17:15:58.448Z,63.27
2023-05-01T17:18:25.023Z,63.18
2023-05-01T17:20:52.299Z,63.14
2023-05-01T17:23:18.926Z,63.58
2023-05-01T17:25:45.778Z,63.78
2023-05-01T17:28:14.833Z,63.88
2023-05-01T17:30:41.813Z,64.07
2023-05-01T17:33:08.434Z,64.14
2023-05-01T17:35:35.199Z,64.27
2023-05-01T17:38:01.726Z,64.58
2023-05-01T17:40:28.302Z,64.68
2023-05-01T17:42:54.844Z,65.25
2023-05-01T17:45:21.454Z,65.14
2023-05-01T17:47:48.028Z,65.11
2023-05-01T17:50:14.701Z,65.28
2023-05-01T17:52:45.006Z,65.06
2023-05-01T17:55:30.289Z,64.98
2023-05-01T17:57:58.343Z,65.05
2023-05-01T18:00:26.289Z,64.91
2023-05-01T18:02:52.865Z,64.29
2023-05-01T18:05:22.655Z,64.37
2023-05-01T18:07:50.168Z,64.32
2023-05-01T18:10:17.168Z,64.21
2023-05-01T18:12:45.612Z,64.29
2023-05-01T18:15:23.450Z,64.47
2023-05-01T18:17:50.051Z,64.55
2023-05-01T18:20:16.673Z,64.39
2023-05-01T18:22:44.491Z,65.11
2023-05-01T18:25:11.596Z,65.11
2023-05-01T18:27:41.618Z,65.72
2023-05-01T18:30:08.693Z,64.51
2023-05-01T18:32:46.777Z,65.91
2023-05-01T18:35:15.638Z,65.88
2023-05-01T18:37:42.844Z,66.38
2023-05-01T18:40:09.974Z,66.61
2023-05-01T18:42:36.402Z,66.80
2023-05-01T18:45:03.970Z,67.00
2023-05-01T18:47:32.292Z,66.88
2023-05-01T18:49:59.947Z,67.85
2023-05-01T18:52:27.877Z,68.15
2023-05-01T18:54:54.364Z,67.51
2023-05-01T18:57:20.886Z,67.96
2023-05-01T18:59:47.335Z,68.56
2023-05-01T19:02:13.956Z,68.22
2023-05-01T19:04:56.037Z,69.02
2023-05-01T19:07:24.604Z,69.00
2023-05-01T19:09:51.092Z,69.41
2023-05-01T19:12:17.682Z,70.16
2023-05-01T19:14:44.438Z,69.94
2023-05-01T19:17:10.942Z,70.08
2023-05-01T19:19:40.349Z,70.24
2023-05-01T19:22:08.292Z,70.49
2023-05-01T19:24:34.793Z,70.43
2023-05-01T19:27:03.129Z,70.24
2023-05-01T19:29:32.987Z,70.86
2023-05-01T19:32:03.389Z,70.29
2023-05-01T19:34:30.013Z,70.10
2023-05-01T19:36:57.058Z,70.59
2023-05-01T19:39:23.981Z,70.98
2023-05-01T19:41:50.987Z,71.28
2023-05-01T19:44:17.732Z,71.12
2023-05-01T19:46:44.464Z,71.35
2023-05-01T19:49:10.951Z,71.24
2023-05-01T19:51:38.821Z,70.77
2023-05-01T19:54:05.283Z,70.81
2023-05-01T19:56:31.755Z,70.69
2023-05-01T19:58:58.261Z,70.97
2023-05-01T20:01:25.145Z,70.78
2023-05-01T20:03:51.698Z,71.05
2023-05-01T20:06:18.230Z,71.59
2023-05-01T20:08:44.821Z,71.72
2023-05-01T20:11:11.352Z,72.49
2023-05-01T20:13:37.819Z,72.56
2023-05-01T20:16:04.530Z,73.03
2023-05-01T20:18:31.038Z,73.25
2023-05-01T20:20:57.858Z,73.76
2023-05-01T20:23:24.337Z,74.26
2023-05-01T20:25:53.686Z,74.63
2023-05-01T20:28:21.087Z,74.79
2023-05-01T20:30:49.333Z,75.24
2023-05-01T20:33:18.542Z,75.43
2023-05-01T20:35:45.404Z,74.88
2023-05-01T20:38:11.983Z,75.07
2023-05-01T20:40:40.145Z,75.74
2023-05-01T20:43:07.185Z,75.52
2023-05-01T20:45:33.842Z,75.98
2023-05-01T20:48:00.593Z,76.38
2023-05-01T20:50:29.198Z,76.23
2023-05-01T20:52:56.178Z,76.30
2023-05-01T20:55:23.785Z,76.30
2023-05-01T20:57:50.532Z,76.84
2023-05-01T21:00:17.221Z,76.36
2023-05-01T21:02:44.579Z,76.94
2023-05-01T21:05:11.552Z,77.37
2023-05-01T21:07:39.665Z,78.09
2023-05-01T21:10:08.811Z,78.45
2023-05-01T21:12:35.651Z,79.04
2023-05-01T21:15:04.230Z,78.90
2023-05-01T21:17:33.367Z,79.67
2023-05-01T21:20:00.176Z,79.29
2023-05-01T21:22:27.672Z,79.64
2023-05-01T21:24:56.754Z,79.49
2023-05-01T21:27:24.817Z,79.61
2023-05-01T21:30:02.449Z,79.59
2023-05-01T21:32:33.879Z,79.45
2023-05-01T21:35:01.217Z,79.35
2023-05-01T21:37:29.022Z,79.39
2023-05-01T21:39:58.763Z,79.51
2023-05-01T21:42:39.290Z,79.80
2023-05-01T21:45:07.798Z,79.61
2023-05-01T21:47:38.322Z,79.44
2023-05-01T21:50:06.828Z,79.78
2023-05-01T21:52:34.483Z,79.75
2023-05-01T21:55:05.872Z,79.41
2023-05-01T21:57:32.311Z,79.35
2023-05-01T22:00:01.574Z,79.80
2023-05-01T22:02:40.407Z,79.66
2023-05-01T22:05:08.016Z,79.30
2023-05-01T22:07:37.663Z,79.89
2023-05-01T22:10:04.401Z,79.72
2023-05-01T22:12:30.874Z,79.63
2023-05-01T22:14:57.384Z,79.34
2023-05-01T22:17:24.347Z,78.74
2023-05-01T22:19:51.654Z,78.89
2023-05-01T22:22:19.098Z,78.62
2023-05-01T22:24:45.981Z,78.83
2023-05-01T22:27:12.445Z,78.80
2023-05-01T22:29:38.941Z,78.49
2023-05-01T22:32:05.839Z,79.00
2023-05-01T22:34:32.401Z,78.71
2023-05-01T22:36:58.941Z,79.03
2023-05-01T22:39:25.653Z,79.25
2023-05-01T22:41:52.314Z,78.80
2023-05-01T22:44:21.008Z,79.20
2023-05-01T22:46:48.806Z,78.86
2023-05-01T22:49:15.309Z,79.37
2023-05-01T22:51:41.792Z,79.66
2023-05-01T22:54:08.212Z,79.88
2023-05-01T22:56:34.638Z,79.93
2023-05-01T22:59:01.071Z,79.87
2023-05-01T23:01:30.562Z,80.11
2023-05-01T23:03:57.104Z,80.07
2023-05-01T23:06:23.690Z,80.26
2023-05-01T23:08:56.211Z,80.23
2023-05-01T23:11:22.745Z,80.16
2023-05-01T23:13:51.344Z,80.65
2023-05-01T23:16:18.377Z,81.11
2023-05-01T23:18:45.622Z,80.74
2023-05-01T23:21:17.403Z,80.85
2023-05-01T23:23:44.697Z,80.69
2023-05-01T23:26:23.796Z,81.45
2023-05-01T23:28:51.218Z,81.17
2023-05-01T23:31:23.005Z,81.33
2023-05-01T23:33:49.536Z,81.34
2023-05-01T23:36:16.244Z,81.36
2023-05-01T23:38:43.143Z,81.44
2023-05-01T23:41:09.978Z,81.95
2023-05-01T23:43:38.591Z,81.96
2023-05-01T23:46:07.469Z,82.27
2023-05-01T23:48:34.329Z,82.37
2023-05-01T23:51:02.595Z,82.38
2023-05-01T23:53:29.212Z,82.53
2023-05-01T23:55:55.695Z,82.53
2023-05-01T23:58:22.781Z,82.63
